createdAt,value
2018-06-20T00:01:15.964Z,98655.38
2018-06-20T00:03:44.950Z,98653.06
2018-06-20T00:06:13.808Z,98644.98
2018-06-20T00:08:46.530Z,98652.53
2018-06-20T00:11:15.569Z,98647.74
2018-06-20T00:13:44.402Z,98645.44
2018-06-20T00:16:13.392Z,98648.85
2018-06-20T00:18:42.252Z,98642.47
2018-06-20T00:21:11.137Z,98646.80
2018-06-20T00:23:40.350Z,98641.25
2018-06-20T00:26:09.210Z,98641.25
2018-06-20T00:28:38.184Z,98638.59
2018-06-20T00:31:07.210Z,98640.84
2018-06-20T00:33:36.140Z,98643.81
2018-06-20T00:36:05.172Z,98637.77
2018-06-20T00:38:34.140Z,98634.55
2018-06-20T00:41:02.959Z,98637.13
2018-06-20T00:43:31.909Z,98641.01
2018-06-20T00:46:02.843Z,98632.34
2018-06-20T00:48:31.841Z,98637.70
2018-06-20T00:51:00.688Z,98633.00
2018-06-20T00:53:29.534Z,98633.19
2018-06-20T00:56:09.565Z,98635.46
2018-06-20T00:58:38.584Z,98633.88
2018-06-20T01:01:07.697Z,98629.20
2018-06-20T01:03:36.381Z,98629.55
2018-06-20T01:06:05.169Z,98631.14
2018-06-20T01:08:34.068Z,98627.84
2018-06-20T01:11:02.879Z,98630.68
2018-06-20T01:13:32.930Z,98630.08
2018-06-20T01:16:01.842Z,98632.92
2018-06-20T01:18:30.834Z,98631.43
2018-06-20T01:20:59.905Z,98627.41
2018-06-20T01:23:28.983Z,98637.88
2018-06-20T01:25:57.758Z,98631.47
2018-06-20T01:28:26.594Z,98631.91
2018-06-20T01:30:55.417Z,98637.72
2018-06-20T01:33:24.283Z,98640.75
2018-06-20T01:35:53.389Z,98637.67
2018-06-20T01:38:22.427Z,98625.64
2018-06-20T01:40:51.400Z,98639.24
2018-06-20T01:43:20.299Z,98636.05
2018-06-20T01:45:49.105Z,98632.30
2018-06-20T01:48:17.979Z,98634.41
2018-06-20T01:50:46.879Z,98631.67
2018-06-20T01:53:15.711Z,98635.44
2018-06-20T01:55:44.742Z,98630.20
2018-06-20T01:58:13.502Z,98632.13
2018-06-20T02:00:42.315Z,98634.53
2018-06-20T02:03:11.116Z,98629.22
2018-06-20T02:05:39.889Z,98633.45
2018-06-20T02:08:08.749Z,98624.69
2018-06-20T02:10:37.789Z,98618.09
2018-06-20T02:13:06.683Z,98629.58
2018-06-20T02:15:35.478Z,98623.32
2018-06-20T02:18:04.564Z,98629.34
2018-06-20T02:20:33.631Z,98624.27
2018-06-20T02:23:02.506Z,98626.28
2018-06-20T02:25:31.249Z,98621.95
2018-06-20T02:28:00.438Z,98625.41
2018-06-20T02:30:29.187Z,98626.05
2018-06-20T02:32:58.131Z,98631.62
2018-06-20T02:35:26.882Z,98630.20
2018-06-20T02:37:55.750Z,98628.91
2018-06-20T02:40:24.595Z,98627.77
2018-06-20T02:42:53.340Z,98628.00
2018-06-20T02:45:22.516Z,98630.42
2018-06-20T02:47:51.460Z,98624.27
2018-06-20T02:50:20.252Z,98624.45
2018-06-20T02:52:49.235Z,98623.81
2018-06-20T02:55:18.055Z,98620.82
2018-06-20T02:57:46.834Z,98620.64
2018-06-20T03:00:15.628Z,98613.91
2018-06-20T03:02:44.613Z,98614.72
2018-06-20T03:05:13.422Z,98610.47
2018-06-20T03:07:42.240Z,98611.27
2018-06-20T03:10:10.990Z,98611.37
2018-06-20T03:12:39.844Z,98605.22
2018-06-20T03:15:08.663Z,98609.95
2018-06-20T03:17:37.467Z,98611.43
2018-06-20T03:20:06.367Z,98610.22
2018-06-20T03:22:35.294Z,98607.91
2018-06-20T03:25:05.112Z,98610.97
2018-06-20T03:27:33.895Z,98613.92
2018-06-20T03:30:02.728Z,98612.69
2018-06-20T03:32:31.726Z,98614.73
2018-06-20T03:35:00.574Z,98619.78
2018-06-20T03:37:29.329Z,98618.66
2018-06-20T03:39:58.084Z,98617.30
2018-06-20T03:42:27.021Z,98621.94
2018-06-20T03:44:55.898Z,98616.14
2018-06-20T03:47:24.794Z,98618.25
2018-06-20T03:49:53.861Z,98619.28
2018-06-20T03:52:22.721Z,98618.92
2018-06-20T03:54:51.640Z,98622.08
2018-06-20T03:57:20.905Z,98620.87
2018-06-20T03:59:49.762Z,98615.80
2018-06-20T04:02:18.750Z,98612.05
2018-06-20T04:04:48.124Z,98614.47
2018-06-20T04:07:17.125Z,98613.56
2018-06-20T04:09:45.801Z,98618.91
2018-06-20T04:12:14.596Z,98614.02
2018-06-20T04:14:43.584Z,98621.23
2018-06-20T04:17:12.407Z,98614.52
2018-06-20T04:19:41.230Z,98615.01
2018-06-20T04:22:10.465Z,98616.17
2018-06-20T04:24:39.458Z,98618.45
2018-06-20T04:27:08.374Z,98618.77
2018-06-20T04:29:37.119Z,98618.94
2018-06-20T04:32:06.178Z,98614.92
2018-06-20T04:34:34.982Z,98615.98
2018-06-20T04:37:03.890Z,98617.41
2018-06-20T04:39:33.159Z,98612.27
2018-06-20T04:42:02.234Z,98612.59
2018-06-20T04:44:36.451Z,98608.63
2018-06-20T04:47:05.190Z,98603.19
2018-06-20T04:49:34.387Z,98605.04
2018-06-20T04:52:03.351Z,98605.42
2018-06-20T04:54:32.229Z,98607.74
2018-06-20T04:57:01.002Z,98603.27
2018-06-20T04:59:29.836Z,98604.74
2018-06-20T05:01:59.077Z,98603.98
2018-06-20T05:04:28.142Z,98600.34
2018-06-20T05:06:58.009Z,98597.17
2018-06-20T05:09:27.271Z,98595.68
2018-06-20T05:11:56.135Z,98593.38
2018-06-20T05:14:25.009Z,98596.00
2018-06-20T05:16:53.834Z,98592.59
2018-06-20T05:19:22.617Z,98592.02
2018-06-20T05:21:51.641Z,98596.92
2018-06-20T05:24:20.912Z,98594.29
2018-06-20T05:26:49.903Z,98597.58
2018-06-20T05:29:18.871Z,98589.27
2018-06-20T05:31:47.981Z,98597.86
2018-06-20T05:34:16.991Z,98593.32
2018-06-20T05:36:45.859Z,98598.56
2018-06-20T05:39:14.762Z,98598.79
2018-06-20T05:41:44.008Z,98600.41
2018-06-20T05:44:13.078Z,98596.78
2018-06-20T05:46:41.998Z,98601.22
2018-06-20T05:49:10.909Z,98596.78
2018-06-20T05:51:39.812Z,98592.70
2018-06-20T05:54:08.906Z,98589.97
2018-06-20T05:56:37.722Z,98589.76
2018-06-20T05:59:06.754Z,98593.85
2018-06-20T06:01:35.729Z,98595.45
2018-06-20T06:04:04.944Z,98595.91
2018-06-20T06:06:33.941Z,98581.33
2018-06-20T06:09:02.978Z,98579.92
2018-06-20T06:11:32.147Z,98576.98
2018-06-20T06:14:00.826Z,98572.17
2018-06-20T06:16:29.649Z,98570.36
2018-06-20T06:18:58.403Z,98568.81
2018-06-20T06:21:27.299Z,98569.86
2018-06-20T06:23:56.070Z,98572.09
2018-06-20T06:26:25.139Z,98570.45
2018-06-20T06:28:54.261Z,98574.81
2018-06-20T06:31:23.470Z,98568.34
2018-06-20T06:33:52.579Z,98566.22
2018-06-20T06:36:21.373Z,98571.89
2018-06-20T06:38:50.539Z,98573.67
2018-06-20T06:41:19.630Z,98571.53
2018-06-20T06:43:48.548Z,98567.05
2018-06-20T06:46:17.545Z,98569.94
2018-06-20T06:48:46.521Z,98565.30
2018-06-20T06:51:15.719Z,98570.71
2018-06-20T06:53:44.805Z,98566.83
2018-06-20T06:56:13.736Z,98567.58
2018-06-20T06:58:42.597Z,98563.30
2018-06-20T07:01:11.369Z,98565.53
2018-06-20T07:03:40.164Z,98567.95
2018-06-20T07:06:09.127Z,98562.30
2018-06-20T07:08:38.173Z,98559.85
2018-06-20T07:11:07.069Z,98559.59
2018-06-20T07:13:35.978Z,98561.69
2018-06-20T07:16:04.878Z,98552.41
2018-06-20T07:18:33.683Z,98558.65
2018-06-20T07:21:02.370Z,98554.14
2018-06-20T07:23:31.279Z,98554.58
2018-06-20T07:26:00.163Z,98552.84
2018-06-20T07:28:29.090Z,98551.56
2018-06-20T07:30:57.860Z,98544.86
2018-06-20T07:33:26.805Z,98544.73
2018-06-20T07:35:55.959Z,98548.11
2018-06-20T07:38:24.813Z,98548.34
2018-06-20T07:40:53.718Z,98547.97
2018-06-20T07:43:22.665Z,98546.59
2018-06-20T07:45:51.555Z,98546.70
2018-06-20T07:48:20.424Z,98540.25
2018-06-20T07:50:49.414Z,98538.23
2018-06-20T07:53:18.426Z,98536.98
2018-06-20T07:55:47.573Z,98533.41
2018-06-20T07:58:21.586Z,98534.20
2018-06-20T08:00:55.976Z,98530.65
2018-06-20T08:03:30.308Z,98534.02
2018-06-20T08:06:04.584Z,98529.72
2018-06-20T08:08:38.607Z,98526.52
2018-06-20T08:11:12.610Z,98529.87
2018-06-20T08:13:46.687Z,98531.54
2018-06-20T08:16:20.821Z,98528.22
2018-06-20T08:18:55.088Z,98529.28
2018-06-20T08:21:30.029Z,98522.96
2018-06-20T08:23:59.554Z,98520.47
2018-06-20T08:26:31.892Z,98518.77
2018-06-20T08:29:00.604Z,98509.91
2018-06-20T08:31:29.580Z,98512.25
2018-06-20T08:33:58.784Z,98510.14
2018-06-20T08:36:27.794Z,98513.08
2018-06-20T08:38:56.815Z,98511.16
2018-06-20T08:41:25.763Z,98502.09
2018-06-20T08:43:54.604Z,98504.68
2018-06-20T08:46:23.479Z,98496.77
2018-06-20T08:48:52.301Z,98499.56
2018-06-20T08:51:21.301Z,98499.06
2018-06-20T08:53:50.442Z,98500.05
2018-06-20T08:56:19.504Z,98497.59
2018-06-20T08:58:48.739Z,98498.42
2018-06-20T09:01:17.536Z,98496.16
2018-06-20T09:03:46.734Z,98497.75
2018-06-20T09:06:20.701Z,98493.38
2018-06-20T09:08:54.775Z,98495.01
2018-06-20T09:11:29.237Z,98483.52
2018-06-20T09:14:03.240Z,98485.38
2018-06-20T09:16:37.608Z,98487.00
2018-06-20T09:19:11.818Z,98482.83
2018-06-20T09:21:40.871Z,98489.18
2018-06-20T09:24:10.253Z,98483.63
2018-06-20T09:26:39.410Z,98477.34
2018-06-20T09:29:08.481Z,98477.96
2018-06-20T09:31:37.505Z,98484.09
2018-06-20T09:34:06.640Z,98479.17
2018-06-20T09:36:35.466Z,98480.20
2018-06-20T09:39:06.062Z,98477.30
2018-06-20T09:41:34.978Z,98479.31
2018-06-20T09:44:04.145Z,98475.33
2018-06-20T09:46:33.383Z,98469.80
2018-06-20T09:49:02.228Z,98469.18
2018-06-20T09:51:31.071Z,98462.64
2018-06-20T09:54:00.074Z,98470.31
2018-06-20T09:56:29.060Z,98468.00
2018-06-20T09:59:01.999Z,98466.25
2018-06-20T10:01:36.157Z,98467.45
2018-06-20T10:04:10.205Z,98469.63
2018-06-20T10:06:44.560Z,98464.29
2018-06-20T10:10:16.507Z,98463.50
2018-06-20T10:12:50.518Z,98463.30
2018-06-20T10:15:19.501Z,98464.47
2018-06-20T10:17:48.611Z,98465.46
2018-06-20T10:20:23.031Z,98460.91
2018-06-20T10:22:52.290Z,98455.95
2018-06-20T10:25:21.978Z,98451.16
2018-06-20T10:27:52.759Z,98452.89
2018-06-20T10:30:22.194Z,98445.94
2018-06-20T10:32:51.217Z,98443.11
2018-06-20T10:35:20.270Z,98437.97
2018-06-20T10:37:49.483Z,98435.38
2018-06-20T10:40:18.462Z,98429.92
2018-06-20T10:42:47.520Z,98433.61
2018-06-20T10:45:21.684Z,98428.55
2018-06-20T10:47:51.562Z,98430.52
2018-06-20T10:50:20.385Z,98426.84
2018-06-20T10:52:49.203Z,98427.18
2018-06-20T10:55:18.749Z,98417.77
2018-06-20T10:57:52.913Z,98406.78
2018-06-20T11:00:26.901Z,98413.22
2018-06-20T11:03:00.987Z,98408.70
2018-06-20T11:05:35.655Z,98409.52
2018-06-20T11:08:09.627Z,98403.95
2018-06-20T11:10:44.192Z,98396.06
2018-06-20T11:13:14.838Z,98393.29
2018-06-20T11:15:44.994Z,98390.11
2018-06-20T11:18:14.098Z,98386.83
2018-06-20T11:20:50.405Z,98384.43
2018-06-20T11:23:19.251Z,98377.14
2018-06-20T11:25:48.371Z,98377.34
2018-06-20T11:28:17.590Z,98378.08
2018-06-20T11:30:47.375Z,98367.43
2018-06-20T11:33:16.658Z,98362.69
2018-06-20T11:35:45.725Z,98361.42
2018-06-20T11:38:14.788Z,98358.28
2018-06-20T11:40:43.550Z,98354.73
2018-06-20T11:43:12.342Z,98359.27
2018-06-20T11:45:46.173Z,98353.69
2018-06-20T11:48:15.062Z,98345.43
2018-06-20T11:50:44.193Z,98342.86
2018-06-20T11:53:12.954Z,98339.34
2018-06-20T11:55:43.300Z,98335.85
2018-06-20T11:58:17.460Z,98335.00
2018-06-20T12:00:51.151Z,98336.15
2018-06-20T12:03:25.043Z,98331.67
2018-06-20T12:05:58.952Z,98330.84
2018-06-20T12:08:32.912Z,98321.10
2018-06-20T12:11:06.770Z,98325.94
2018-06-20T12:13:40.934Z,98320.85
2018-06-20T12:16:15.464Z,98312.38
2018-06-20T12:18:49.690Z,98316.73
2018-06-20T12:21:24.615Z,98309.55
2018-06-20T12:23:58.807Z,98304.83
2018-06-20T12:26:33.191Z,98313.52
2018-06-20T12:29:07.556Z,98300.41
2018-06-20T12:31:41.566Z,98305.44
2018-06-20T12:34:15.767Z,98298.70
2018-06-20T12:36:49.737Z,98302.80
2018-06-20T12:39:17.656Z,98294.88
2018-06-20T12:41:51.602Z,98289.27
2018-06-20T12:44:30.533Z,98289.81
2018-06-20T12:47:07.400Z,98286.84
2018-06-20T12:49:38.582Z,98286.94
2018-06-20T12:52:07.921Z,98280.70
2018-06-20T12:54:37.157Z,98278.30
2018-06-20T12:57:06.429Z,98263.49
2018-06-20T12:59:35.261Z,98272.97
2018-06-20T13:02:04.158Z,98269.00
2018-06-20T13:04:33.161Z,98273.02
2018-06-20T13:07:01.938Z,98269.73
2018-06-20T13:09:30.758Z,98265.17
2018-06-20T13:11:59.551Z,98257.05
2018-06-20T13:14:28.574Z,98262.22
2018-06-20T13:16:57.336Z,98262.22
2018-06-20T13:19:26.183Z,98265.23
2018-06-20T13:21:54.938Z,98260.94
2018-06-20T13:24:23.698Z,98253.08
2018-06-20T13:26:52.705Z,98246.88
2018-06-20T13:29:21.882Z,98249.05
2018-06-20T13:31:55.997Z,98251.02
2018-06-20T13:34:29.934Z,98243.52
2018-06-20T13:37:04.019Z,98245.44
2018-06-20T13:39:38.515Z,98238.70
2018-06-20T13:42:09.421Z,98237.70
2018-06-20T13:44:38.234Z,98234.85
2018-06-20T13:47:12.232Z,98238.50
2018-06-20T13:49:41.083Z,98232.52
2018-06-20T13:52:11.219Z,98226.83
2018-06-20T13:54:40.091Z,98219.24
2018-06-20T13:57:09.220Z,98222.38
2018-06-20T13:59:38.159Z,98226.98
2018-06-20T14:02:07.024Z,98230.30
2018-06-20T14:04:35.789Z,98223.79
2018-06-20T14:07:05.001Z,98224.91
2018-06-20T14:09:34.039Z,98211.64
2018-06-20T14:12:02.962Z,98213.77
2018-06-20T14:14:32.063Z,98215.88
2018-06-20T14:17:01.246Z,98208.14
2018-06-20T14:19:35.267Z,98208.06
2018-06-20T14:22:04.231Z,98207.14
2018-06-20T14:24:33.077Z,98199.91
2018-06-20T14:27:02.114Z,98196.44
2018-06-20T14:29:36.239Z,98193.75
2018-06-20T14:32:10.214Z,98198.23
2018-06-20T14:34:44.083Z,98191.98
2018-06-20T14:37:18.036Z,98188.97
2018-06-20T14:39:52.046Z,98190.86
2018-06-20T14:42:26.375Z,98187.48
2018-06-20T14:45:00.284Z,98179.31
2018-06-20T14:47:29.204Z,98180.58
2018-06-20T14:49:58.108Z,98178.99
2018-06-20T14:52:27.051Z,98170.55
2018-06-20T14:54:55.798Z,98174.14
2018-06-20T14:57:24.629Z,98178.55
2018-06-20T14:59:53.551Z,98174.27
2018-06-20T15:02:22.352Z,98173.16
2018-06-20T15:04:51.233Z,98161.81
2018-06-20T15:07:20.089Z,98160.83
2018-06-20T15:09:49.081Z,98156.63
2018-06-20T15:12:18.066Z,98154.70
2018-06-20T15:14:47.063Z,98156.03
2018-06-20T15:17:21.047Z,98157.55
2018-06-20T15:19:49.853Z,98148.80
2018-06-20T15:22:18.853Z,98151.41
2018-06-20T15:24:47.921Z,98150.52
2018-06-20T15:27:22.468Z,98146.30
2018-06-20T15:29:56.503Z,98144.41
2018-06-20T15:32:31.010Z,98142.97
2018-06-20T15:35:05.725Z,98135.75
2018-06-20T15:37:52.153Z,98133.87
2018-06-20T15:40:24.053Z,98133.37
2018-06-20T15:42:53.586Z,98131.53
2018-06-20T15:45:23.298Z,98124.21
2018-06-20T15:47:52.989Z,98116.64
2018-06-20T15:50:22.765Z,98110.42
2018-06-20T15:52:53.846Z,98117.65
2018-06-20T15:55:23.125Z,98107.64
2018-06-20T15:57:52.290Z,98109.55
2018-06-20T16:00:21.516Z,98107.45
2018-06-20T16:02:51.612Z,98102.41
2018-06-20T16:05:21.568Z,98104.31
2018-06-20T16:07:51.476Z,98100.81
2018-06-20T16:10:21.113Z,98100.91
2018-06-20T16:12:50.558Z,98101.37
2018-06-20T16:15:23.921Z,98096.66
2018-06-20T16:17:55.099Z,98092.91
2018-06-20T16:20:29.776Z,98095.44
2018-06-20T16:23:03.789Z,98092.78
2018-06-20T16:25:38.709Z,98089.23
2018-06-20T16:28:12.870Z,98091.13
2018-06-20T16:30:43.183Z,98087.50
2018-06-20T16:33:12.822Z,98097.36
2018-06-20T16:35:43.710Z,98089.61
2018-06-20T16:38:12.809Z,98084.20
2018-06-20T16:40:41.910Z,98087.34
2018-06-20T16:43:10.971Z,98087.47
2018-06-20T16:45:39.811Z,98083.59
2018-06-20T16:48:08.800Z,98088.84
2018-06-20T16:50:37.728Z,98079.86
2018-06-20T16:53:06.903Z,98082.00
2018-06-20T16:55:35.784Z,98083.98
2018-06-20T16:58:04.965Z,98079.10
2018-06-20T17:00:34.061Z,98077.31
2018-06-20T17:03:03.150Z,98080.86
2018-06-20T17:05:32.191Z,98074.44
2018-06-20T17:08:01.242Z,98074.83
2018-06-20T17:10:30.325Z,98070.81
2018-06-20T17:14:06.550Z,98067.36
2018-06-20T17:16:40.575Z,98069.09
2018-06-20T17:19:14.757Z,98063.25
2018-06-20T17:21:49.044Z,98064.17
2018-06-20T17:24:23.305Z,98061.17
2018-06-20T17:26:52.197Z,98063.33
2018-06-20T17:29:21.331Z,98063.52
2018-06-20T17:31:50.354Z,98065.83
2018-06-20T17:34:19.485Z,98058.10
2018-06-20T17:36:48.517Z,98059.47
2018-06-20T17:39:17.445Z,98060.81
2018-06-20T17:41:46.332Z,98064.16
2018-06-20T17:44:15.357Z,98058.80
2018-06-20T17:46:44.335Z,98053.45
2018-06-20T17:49:13.342Z,98057.44
2018-06-20T17:51:42.218Z,98046.32
2018-06-20T17:54:11.422Z,98051.63
2018-06-20T17:56:41.785Z,98055.17
2018-06-20T17:59:10.711Z,98059.45
2018-06-20T18:01:39.704Z,98057.28
2018-06-20T18:04:08.888Z,98051.52
2018-06-20T18:06:43.043Z,98053.39
2018-06-20T18:09:17.023Z,98052.90
2018-06-20T18:11:51.260Z,98054.28
2018-06-20T18:14:26.131Z,98046.27
2018-06-20T18:16:59.666Z,98043.78
2018-06-20T18:19:30.655Z,98045.95
2018-06-20T18:21:59.517Z,98049.05
2018-06-20T18:24:29.371Z,98049.87
2018-06-20T18:26:58.132Z,98042.55
2018-06-20T18:29:27.056Z,98043.28
2018-06-20T18:31:56.499Z,98053.70
2018-06-20T18:34:25.665Z,98052.83
2018-06-20T18:36:54.523Z,98052.02
2018-06-20T18:39:23.854Z,98050.53
2018-06-20T18:41:52.738Z,98052.06
2018-06-20T18:44:22.144Z,98050.00
2018-06-20T18:46:50.951Z,98050.84
2018-06-20T18:49:19.897Z,98050.50
2018-06-20T18:51:50.690Z,98046.39
2018-06-20T18:54:19.750Z,98044.36
2018-06-20T18:56:49.067Z,98047.84
2018-06-20T19:00:24.189Z,98046.70
2018-06-20T19:02:58.288Z,98045.19
2018-06-20T19:05:32.401Z,98048.11
2018-06-20T19:08:11.247Z,98052.39
2018-06-20T19:10:40.249Z,98047.50
2018-06-20T19:13:09.451Z,98050.99
2018-06-20T19:15:39.394Z,98047.08
2018-06-20T19:18:08.601Z,98051.69
2018-06-20T19:20:37.550Z,98048.79
2018-06-20T19:23:06.779Z,98047.45
2018-06-20T19:25:35.824Z,98046.72
2018-06-20T19:28:04.836Z,98053.06
2018-06-20T19:30:34.046Z,98059.06
2018-06-20T19:33:02.963Z,98058.70
2018-06-20T19:35:32.813Z,98057.38
2018-06-20T19:38:01.997Z,98061.17
2018-06-20T19:40:31.032Z,98061.58
2018-06-20T19:42:59.950Z,98063.97
2018-06-20T19:45:29.515Z,98066.77
2018-06-20T19:47:59.701Z,98071.96
2018-06-20T19:50:28.584Z,98070.20
2018-06-20T19:52:57.703Z,98076.14
2018-06-20T19:55:26.496Z,98074.78
2018-06-20T19:57:55.943Z,98075.77
2018-06-20T20:00:24.989Z,98074.03
2018-06-20T20:02:54.676Z,98069.09
2018-06-20T20:05:24.444Z,98079.60
2018-06-20T20:07:53.837Z,98075.88
2018-06-20T20:10:23.086Z,98077.27
2018-06-20T20:12:52.037Z,98078.66
2018-06-20T20:15:21.173Z,98074.88
2018-06-20T20:17:51.033Z,98082.96
2018-06-20T20:20:20.032Z,98080.00
2018-06-20T20:22:48.871Z,98076.86
2018-06-20T20:25:18.887Z,98087.52
2018-06-20T20:27:47.753Z,98089.50
2018-06-20T20:30:18.367Z,98079.04
2018-06-20T20:32:47.789Z,98087.73
2018-06-20T20:35:16.701Z,98087.72
2018-06-20T20:37:45.897Z,98082.00
2018-06-20T20:40:14.899Z,98087.31
2018-06-20T20:42:43.820Z,98085.76
2018-06-20T20:45:12.673Z,98085.55
2018-06-20T20:47:41.571Z,98086.53
2018-06-20T20:50:10.750Z,98085.53
2018-06-20T20:52:39.557Z,98089.08
2018-06-20T20:55:08.549Z,98087.72
2018-06-20T20:57:37.986Z,98085.12
2018-06-20T21:00:06.890Z,98085.12
2018-06-20T21:02:36.084Z,98081.21
2018-06-20T21:05:05.207Z,98089.48
2018-06-20T21:07:34.332Z,98091.78
2018-06-20T21:10:03.294Z,98086.28
2018-06-20T21:12:32.163Z,98084.66
2018-06-20T21:15:01.006Z,98082.30
2018-06-20T21:17:30.023Z,98087.78
2018-06-20T21:19:58.829Z,98086.97
2018-06-20T21:22:27.694Z,98082.60
2018-06-20T21:24:56.578Z,98088.59
2018-06-20T21:27:25.639Z,98082.88
2018-06-20T21:29:54.515Z,98079.69
2018-06-20T21:32:23.383Z,98079.81
2018-06-20T21:34:52.259Z,98080.95
2018-06-20T21:37:21.319Z,98082.33
2018-06-20T21:39:50.119Z,98080.50
2018-06-20T21:42:19.320Z,98080.66
2018-06-20T21:44:48.122Z,98075.92
2018-06-20T21:47:17.161Z,98078.20
2018-06-20T21:49:45.969Z,98084.01
2018-06-20T21:52:14.864Z,98082.17
2018-06-20T21:54:43.913Z,98078.14
2018-06-20T21:57:12.938Z,98072.81
2018-06-20T21:59:42.174Z,98069.55
2018-06-20T22:02:10.967Z,98069.34
2018-06-20T22:04:39.990Z,98074.41
2018-06-20T22:07:08.727Z,98072.83
2018-06-20T22:09:37.544Z,98069.07
2018-06-20T22:12:06.357Z,98066.45
2018-06-20T22:14:35.278Z,98062.52
2018-06-20T22:17:04.302Z,98062.25
2018-06-20T22:19:33.070Z,98068.06
2018-06-20T22:22:01.936Z,98067.05
2018-06-20T22:24:30.850Z,98062.11
2018-06-20T22:26:59.777Z,98058.29
2018-06-20T22:29:28.549Z,98062.01
2018-06-20T22:31:57.838Z,98062.77
2018-06-20T22:34:26.687Z,98055.77
2018-06-20T22:36:55.813Z,98060.07
2018-06-20T22:39:24.609Z,98064.73
2018-06-20T22:41:53.392Z,98056.42
2018-06-20T22:44:23.142Z,98054.61
2018-06-20T22:46:52.306Z,98055.17
2018-06-20T22:49:21.139Z,98046.83
2018-06-20T22:51:49.941Z,98047.33
2018-06-20T22:54:18.658Z,98047.48
2018-06-20T22:56:47.682Z,98047.06
2018-06-20T22:59:16.425Z,98044.88
2018-06-20T23:01:45.770Z,98041.56
2018-06-20T23:04:14.436Z,98045.07
2018-06-20T23:06:43.223Z,98047.62
2018-06-20T23:09:12.454Z,98052.91
2018-06-20T23:11:48.399Z,98048.39
2018-06-20T23:14:17.394Z,98042.59
2018-06-20T23:16:46.235Z,98047.77
2018-06-20T23:19:15.150Z,98039.05
2018-06-20T23:21:44.096Z,98038.20
2018-06-20T23:24:12.859Z,98029.84
2018-06-20T23:26:41.588Z,98025.52
2018-06-20T23:29:10.306Z,98026.41
2018-06-20T23:31:38.995Z,98018.52
2018-06-20T23:34:07.733Z,98016.70
2018-06-20T23:36:36.602Z,98014.70
2018-06-20T23:39:08.725Z,98012.71
2018-06-20T23:41:38.176Z,98015.97
2018-06-20T23:44:07.784Z,98012.39
2018-06-20T23:46:36.893Z,98014.05
2018-06-20T23:49:05.806Z,98005.66
2018-06-20T23:51:34.677Z,98010.56
2018-06-20T23:54:03.388Z,98012.08
2018-06-20T23:56:32.271Z,98004.52
2018-06-20T23:59:01.233Z,98004.09
